Kelso, United Kingdom
Current Conditions -  °F | °C
As of 7:50 PM on Thursday 18 Dec 2014 (Local Time) from EGQM Reporting Station
Clear Clear  
Wind Chill: 42°   Ceiling: Unl
Heat Index: 48°   Visibility: 6mi
Dew Point: 43°   Wind: 15mph
Humidity: 82%   Direction: 260°W
Pressure: 29.44"   Gusts: NA
Location:  55.6°N, 2.43°W
Report Text: EGQM 181950Z AUTO 26013KT 9999 NCD 09/06 Q0997
Loading
Personal Weather Stations






























Interactive Weather Map New forecast layout! Learn more

10-Day Weather Forecast

Advertisements
Track Severe Weather on mobile